CheckWX is a tool to help pilots better visualize weather data.  It is not intended as a substitute for an official pre-flight weather briefing.

15:33:48 UTC

KLAL TAF
Lakeland Linder Regional Airport
Lakeland, Florida, USA
KLAL 291720Z 2918/3018 13008KT P6SM VCTS BKN040CB TEMPO 2920/2924 VRB15G25KT 3SM TSRA BKN025CB OVC100 FM300000 VRB05KT P6SM VCTS SCT040CB BKN130 FM300200 VRB03KT P6SM FEW040 SCT130 BKN250 FM301500 24005KT P6SM SCT040

May-29@
18:00 UTC

May-29 @ 18:00 UTC

May-30@
00:00 UTC

May-30 @ 00:00 UTC

TAF KLAL 291720Z 2918/3018 13008KT P6SM VCTS BKN040CB

Expired

Wind
  • 130° at 8 KTS
Conditions
Area Thunderstorm
Cloud Levels
  • Broken at 4,000' AGL

May-29@
20:00 UTC

May-29 @ 20:00 UTC

May-30@
00:00 UTC

May-30 @ 00:00 UTC

TEMPO 2920/2924 VRB15G25KT 3SM TSRA BKN025CB OVC100

Expired

Wind
  • Variable at 15 KTS
  • {Gusting to 25 KTS
Conditions
Thunderstorm, Rain
Cloud Levels
  • Broken at 2,500' AGL
  • Overcast at 10,000' AGL

May-30@
00:00 UTC

May-30 @ 00:00 UTC

May-30@
02:00 UTC

May-30 @ 02:00 UTC

FM300000 VRB05KT P6SM VCTS SCT040CB BKN130

Expired

Wind
  • Variable at 5 KTS
Conditions
Area Thunderstorm
Cloud Levels
  • Scattered at 4,000' AGL
  • Broken at 13,000' AGL

May-30@
02:00 UTC

May-30 @ 02:00 UTC

May-30@
15:00 UTC

May-30 @ 15:00 UTC

FM300200 VRB03KT P6SM FEW040 SCT130 BKN250

Expired

Wind
  • Variable at 3 KTS
Cloud Levels
  • Few at 4,000' AGL
  • Scattered at 13,000' AGL
  • Broken at 25,000' AGL

May-30@
15:00 UTC

May-30 @ 15:00 UTC

May-30@
18:00 UTC

May-30 @ 18:00 UTC

FM301500 24005KT P6SM SCT040

From

From Standard forecast or significant change

Wind
  • 240° at 5 KTS
Cloud Levels
  • Scattered at 4,000' AGL